sensor_id;sensor_type;location;lat;lon;timestamp;P1;durP1;ratioP1;P2;durP2;ratioP2
19406;SDS011;9839;53.364;-1.204;2024-02-21T00:00:38;8.43;;;4.60;;
19406;SDS011;9839;53.364;-1.204;2024-02-21T00:03:05;12.93;;;5.07;;
19406;SDS011;9839;53.364;-1.204;2024-02-21T00:05:30;6.80;;;3.80;;
19406;SDS011;9839;53.364;-1.204;2024-02-21T00:07:58;9.70;;;4.00;;
19406;SDS011;9839;53.364;-1.204;2024-02-21T00:10:24;6.03;;;3.60;;
19406;SDS011;9839;53.364;-1.204;2024-02-21T00:12:50;8.53;;;4.47;;
19406;SDS011;9839;53.364;-1.204;2024-02-21T00:15:16;11.60;;;4.60;;
19406;SDS011;9839;53.364;-1.204;2024-02-21T00:17:41;11.27;;;5.20;;
19406;SDS011;9839;53.364;-1.204;2024-02-21T00:20:07;10.90;;;5.17;;
19406;SDS011;9839;53.364;-1.204;2024-02-21T00:22:33;8.17;;;4.43;;
19406;SDS011;9839;53.364;-1.204;2024-02-21T00:24:59;6.83;;;4.03;;
19406;SDS011;9839;53.364;-1.204;2024-02-21T00:27:24;11.83;;;5.80;;
19406;SDS011;9839;53.364;-1.204;2024-02-21T00:29:49;8.13;;;4.27;;
19406;SDS011;9839;53.364;-1.204;2024-02-21T00:32:15;10.27;;;4.73;;
19406;SDS011;9839;53.364;-1.204;2024-02-21T00:34:40;11.23;;;4.73;;
19406;SDS011;9839;53.364;-1.204;2024-02-21T00:37:06;10.07;;;5.27;;
19406;SDS011;9839;53.364;-1.204;2024-02-21T00:39:31;7.83;;;3.83;;
19406;SDS011;9839;53.364;-1.204;2024-02-21T00:41:57;10.90;;;4.90;;
19406;SDS011;9839;53.364;-1.204;2024-02-21T00:44:22;12.03;;;5.23;;
19406;SDS011;9839;53.364;-1.204;2024-02-21T00:46:47;8.93;;;4.27;;
19406;SDS011;9839;53.364;-1.204;2024-02-21T00:49:13;11.87;;;4.47;;
19406;SDS011;9839;53.364;-1.204;2024-02-21T00:51:38;8.23;;;4.77;;
19406;SDS011;9839;53.364;-1.204;2024-02-21T00:54:03;10.57;;;4.70;;
19406;SDS011;9839;53.364;-1.204;2024-02-21T00:56:29;8.63;;;4.90;;
19406;SDS011;9839;53.364;-1.204;2024-02-21T00:58:55;11.83;;;5.40;;
19406;SDS011;9839;53.364;-1.204;2024-02-21T01:01:22;8.57;;;4.63;;
19406;SDS011;9839;53.364;-1.204;2024-02-21T01:03:48;8.27;;;4.87;;
19406;SDS011;9839;53.364;-1.204;2024-02-21T01:06:14;8.27;;;4.70;;
19406;SDS011;9839;53.364;-1.204;2024-02-21T01:08:39;7.93;;;4.80;;
19406;SDS011;9839;53.364;-1.204;2024-02-21T01:11:04;7.87;;;4.83;;
19406;SDS011;9839;53.364;-1.204;2024-02-21T01:13:30;11.37;;;5.17;;
19406;SDS011;9839;53.364;-1.204;2024-02-21T01:15:55;9.57;;;4.53;;
19406;SDS011;9839;53.364;-1.204;2024-02-21T01:18:20;9.57;;;5.37;;
19406;SDS011;9839;53.364;-1.204;2024-02-21T01:20:46;7.40;;;4.63;;
19406;SDS011;9839;53.364;-1.204;2024-02-21T01:23:11;11.30;;;5.23;;
19406;SDS011;9839;53.364;-1.204;2024-02-21T01:25:37;10.13;;;5.30;;
19406;SDS011;9839;53.364;-1.204;2024-02-21T01:28:02;11.87;;;5.70;;
19406;SDS011;9839;53.364;-1.204;2024-02-21T01:30:27;10.87;;;5.33;;
19406;SDS011;9839;53.364;-1.204;2024-02-21T01:32:53;10.87;;;5.20;;
19406;SDS011;9839;53.364;-1.204;2024-02-21T01:35:18;12.97;;;5.67;;
19406;SDS011;9839;53.364;-1.204;2024-02-21T01:37:43;13.90;;;5.73;;
19406;SDS011;9839;53.364;-1.204;2024-02-21T01:40:09;11.20;;;5.37;;
19406;SDS011;9839;53.364;-1.204;2024-02-21T01:42:38;11.70;;;4.97;;
19406;SDS011;9839;53.364;-1.204;2024-02-21T01:45:05;9.13;;;5.37;;
19406;SDS011;9839;53.364;-1.204;2024-02-21T01:47:31;10.20;;;4.90;;
19406;SDS011;9839;53.364;-1.204;2024-02-21T01:49:56;7.80;;;5.13;;
19406;SDS011;9839;53.364;-1.204;2024-02-21T01:52:22;9.43;;;5.20;;
19406;SDS011;9839;53.364;-1.204;2024-02-21T01:54:47;8.63;;;4.77;;
19406;SDS011;9839;53.364;-1.204;2024-02-21T01:57:13;9.30;;;4.73;;
19406;SDS011;9839;53.364;-1.204;2024-02-21T01:59:39;8.80;;;5.33;;
19406;SDS011;9839;53.364;-1.204;2024-02-21T02:02:05;10.13;;;5.40;;
19406;SDS011;9839;53.364;-1.204;2024-02-21T02:04:30;10.43;;;5.53;;
19406;SDS011;9839;53.364;-1.204;2024-02-21T02:06:57;9.80;;;5.87;;
19406;SDS011;9839;53.364;-1.204;2024-02-21T02:09:25;9.60;;;5.30;;
19406;SDS011;9839;53.364;-1.204;2024-02-21T02:11:50;10.63;;;5.80;;
19406;SDS011;9839;53.364;-1.204;2024-02-21T02:14:16;10.73;;;6.00;;
19406;SDS011;9839;53.364;-1.204;2024-02-21T02:16:41;14.40;;;6.87;;
19406;SDS011;9839;53.364;-1.204;2024-02-21T02:19:06;10.60;;;5.93;;
19406;SDS011;9839;53.364;-1.204;2024-02-21T02:21:32;14.13;;;7.23;;
19406;SDS011;9839;53.364;-1.204;2024-02-21T02:24:01;11.33;;;6.47;;
19406;SDS011;9839;53.364;-1.204;2024-02-21T02:26:27;10.57;;;6.17;;
19406;SDS011;9839;53.364;-1.204;2024-02-21T02:28:52;16.37;;;8.00;;
19406;SDS011;9839;53.364;-1.204;2024-02-21T02:31:17;14.40;;;7.00;;
19406;SDS011;9839;53.364;-1.204;2024-02-21T02:33:43;20.30;;;8.30;;
19406;SDS011;9839;53.364;-1.204;2024-02-21T02:36:09;23.30;;;9.27;;
19406;SDS011;9839;53.364;-1.204;2024-02-21T02:38:35;18.33;;;8.93;;
19406;SDS011;9839;53.364;-1.204;2024-02-21T02:41:00;24.40;;;10.07;;
19406;SDS011;9839;53.364;-1.204;2024-02-21T02:43:25;21.87;;;10.67;;
19406;SDS011;9839;53.364;-1.204;2024-02-21T02:45:51;20.33;;;10.20;;
19406;SDS011;9839;53.364;-1.204;2024-02-21T02:48:16;24.37;;;11.00;;
19406;SDS011;9839;53.364;-1.204;2024-02-21T02:50:41;21.50;;;10.50;;
19406;SDS011;9839;53.364;-1.204;2024-02-21T02:53:07;21.80;;;10.47;;
19406;SDS011;9839;53.364;-1.204;2024-02-21T02:55:32;22.27;;;10.00;;
19406;SDS011;9839;53.364;-1.204;2024-02-21T02:57:58;26.33;;;10.97;;
19406;SDS011;9839;53.364;-1.204;2024-02-21T03:00:23;22.17;;;10.77;;
19406;SDS011;9839;53.364;-1.204;2024-02-21T03:02:49;21.03;;;9.80;;
19406;SDS011;9839;53.364;-1.204;2024-02-21T03:05:18;22.43;;;10.20;;
19406;SDS011;9839;53.364;-1.204;2024-02-21T03:07:45;26.10;;;9.80;;
19406;SDS011;9839;53.364;-1.204;2024-02-21T03:10:10;24.20;;;10.60;;
19406;SDS011;9839;53.364;-1.204;2024-02-21T03:12:36;25.13;;;11.00;;
19406;SDS011;9839;53.364;-1.204;2024-02-21T03:15:02;31.03;;;11.03;;
19406;SDS011;9839;53.364;-1.204;2024-02-21T03:17:28;28.60;;;10.80;;
19406;SDS011;9839;53.364;-1.204;2024-02-21T03:19:53;26.73;;;11.33;;
19406;SDS011;9839;53.364;-1.204;2024-02-21T03:22:20;25.23;;;10.50;;
19406;SDS011;9839;53.364;-1.204;2024-02-21T03:24:46;24.83;;;10.90;;
19406;SDS011;9839;53.364;-1.204;2024-02-21T03:27:11;25.90;;;9.97;;
19406;SDS011;9839;53.364;-1.204;2024-02-21T03:29:36;27.47;;;11.30;;
19406;SDS011;9839;53.364;-1.204;2024-02-21T03:32:02;22.77;;;8.43;;
19406;SDS011;9839;53.364;-1.204;2024-02-21T03:34:27;24.80;;;8.77;;
19406;SDS011;9839;53.364;-1.204;2024-02-21T03:36:52;20.53;;;8.40;;
19406;SDS011;9839;53.364;-1.204;2024-02-21T03:39:18;19.90;;;8.33;;
19406;SDS011;9839;53.364;-1.204;2024-02-21T03:41:43;22.77;;;7.50;;
19406;SDS011;9839;53.364;-1.204;2024-02-21T03:44:08;17.17;;;7.07;;
19406;SDS011;9839;53.364;-1.204;2024-02-21T03:46:34;16.57;;;6.67;;
19406;SDS011;9839;53.364;-1.204;2024-02-21T03:48:59;17.13;;;5.93;;
19406;SDS011;9839;53.364;-1.204;2024-02-21T03:51:25;16.00;;;6.23;;
19406;SDS011;9839;53.364;-1.204;2024-02-21T03:53:51;20.27;;;6.47;;
19406;SDS011;9839;53.364;-1.204;2024-02-21T03:56:16;19.63;;;6.50;;
19406;SDS011;9839;53.364;-1.204;2024-02-21T03:58:41;20.07;;;7.30;;
19406;SDS011;9839;53.364;-1.204;2024-02-21T04:01:07;23.67;;;6.90;;
19406;SDS011;9839;53.364;-1.204;2024-02-21T04:03:32;16.63;;;6.17;;
19406;SDS011;9839;53.364;-1.204;2024-02-21T04:05:58;17.40;;;6.30;;
19406;SDS011;9839;53.364;-1.204;2024-02-21T04:08:23;17.07;;;5.87;;
19406;SDS011;9839;53.364;-1.204;2024-02-21T04:10:48;15.33;;;6.07;;
19406;SDS011;9839;53.364;-1.204;2024-02-21T04:13:14;14.70;;;6.33;;
19406;SDS011;9839;53.364;-1.204;2024-02-21T04:15:39;18.00;;;6.33;;
19406;SDS011;9839;53.364;-1.204;2024-02-21T04:18:05;14.97;;;5.83;;
19406;SDS011;9839;53.364;-1.204;2024-02-21T04:20:30;15.17;;;6.30;;
19406;SDS011;9839;53.364;-1.204;2024-02-21T04:22:56;17.03;;;6.40;;
19406;SDS011;9839;53.364;-1.204;2024-02-21T04:25:21;19.53;;;5.80;;
19406;SDS011;9839;53.364;-1.204;2024-02-21T04:27:47;17.23;;;5.97;;
19406;SDS011;9839;53.364;-1.204;2024-02-21T04:30:12;10.87;;;5.03;;
19406;SDS011;9839;53.364;-1.204;2024-02-21T04:32:38;13.60;;;4.83;;
19406;SDS011;9839;53.364;-1.204;2024-02-21T04:35:04;13.17;;;4.73;;
19406;SDS011;9839;53.364;-1.204;2024-02-21T04:37:29;12.47;;;4.60;;
19406;SDS011;9839;53.364;-1.204;2024-02-21T04:39:55;13.33;;;4.60;;
19406;SDS011;9839;53.364;-1.204;2024-02-21T04:42:21;11.80;;;3.90;;
19406;SDS011;9839;53.364;-1.204;2024-02-21T04:44:46;8.80;;;4.13;;
19406;SDS011;9839;53.364;-1.204;2024-02-21T04:47:11;11.70;;;4.23;;
19406;SDS011;9839;53.364;-1.204;2024-02-21T04:49:37;10.90;;;4.67;;
19406;SDS011;9839;53.364;-1.204;2024-02-21T04:52:03;10.33;;;3.80;;
19406;SDS011;9839;53.364;-1.204;2024-02-21T04:54:29;11.40;;;3.73;;
19406;SDS011;9839;53.364;-1.204;2024-02-21T04:56:54;5.80;;;3.30;;
19406;SDS011;9839;53.364;-1.204;2024-02-21T04:59:19;7.03;;;3.00;;
19406;SDS011;9839;53.364;-1.204;2024-02-21T05:01:45;8.63;;;3.07;;
19406;SDS011;9839;53.364;-1.204;2024-02-21T05:04:10;7.50;;;3.13;;
19406;SDS011;9839;53.364;-1.204;2024-02-21T05:06:41;6.77;;;2.37;;
19406;SDS011;9839;53.364;-1.204;2024-02-21T05:09:07;4.20;;;2.53;;
19406;SDS011;9839;53.364;-1.204;2024-02-21T05:11:33;4.63;;;2.63;;
19406;SDS011;9839;53.364;-1.204;2024-02-21T05:13:59;2.93;;;1.80;;
19406;SDS011;9839;53.364;-1.204;2024-02-21T05:16:24;4.67;;;1.93;;
19406;SDS011;9839;53.364;-1.204;2024-02-21T05:18:50;6.47;;;1.80;;
19406;SDS011;9839;53.364;-1.204;2024-02-21T05:21:15;4.17;;;1.70;;
19406;SDS011;9839;53.364;-1.204;2024-02-21T05:23:40;3.03;;;1.73;;
19406;SDS011;9839;53.364;-1.204;2024-02-21T05:26:06;3.20;;;1.80;;
19406;SDS011;9839;53.364;-1.204;2024-02-21T05:28:32;2.50;;;1.17;;
19406;SDS011;9839;53.364;-1.204;2024-02-21T05:30:57;2.23;;;1.50;;
19406;SDS011;9839;53.364;-1.204;2024-02-21T05:33:23;1.83;;;1.27;;
19406;SDS011;9839;53.364;-1.204;2024-02-21T05:35:48;3.67;;;1.30;;
19406;SDS011;9839;53.364;-1.204;2024-02-21T05:38:14;2.53;;;1.17;;
19406;SDS011;9839;53.364;-1.204;2024-02-21T05:40:40;2.10;;;1.30;;
19406;SDS011;9839;53.364;-1.204;2024-02-21T05:43:06;2.47;;;1.50;;
19406;SDS011;9839;53.364;-1.204;2024-02-21T05:45:32;3.57;;;1.50;;
19406;SDS011;9839;53.364;-1.204;2024-02-21T05:47:57;2.83;;;1.30;;
19406;SDS011;9839;53.364;-1.204;2024-02-21T05:50:23;2.93;;;1.40;;
19406;SDS011;9839;53.364;-1.204;2024-02-21T05:52:51;1.30;;;1.20;;
19406;SDS011;9839;53.364;-1.204;2024-02-21T05:55:16;2.03;;;1.23;;
19406;SDS011;9839;53.364;-1.204;2024-02-21T05:57:42;0.73;;;0.73;;
19406;SDS011;9839;53.364;-1.204;2024-02-21T06:00:07;4.63;;;0.80;;
19406;SDS011;9839;53.364;-1.204;2024-02-21T06:02:33;1.43;;;0.87;;
19406;SDS011;9839;53.364;-1.204;2024-02-21T06:04:58;1.50;;;0.90;;
19406;SDS011;9839;53.364;-1.204;2024-02-21T06:07:24;1.80;;;0.77;;
19406;SDS011;9839;53.364;-1.204;2024-02-21T06:09:49;1.83;;;0.97;;
19406;SDS011;9839;53.364;-1.204;2024-02-21T06:12:14;2.40;;;0.97;;
19406;SDS011;9839;53.364;-1.204;2024-02-21T06:14:40;1.50;;;1.00;;
19406;SDS011;9839;53.364;-1.204;2024-02-21T06:17:05;0.97;;;0.87;;
19406;SDS011;9839;53.364;-1.204;2024-02-21T06:19:30;2.60;;;1.33;;
19406;SDS011;9839;53.364;-1.204;2024-02-21T06:21:56;3.83;;;1.40;;
19406;SDS011;9839;53.364;-1.204;2024-02-21T06:24:21;3.97;;;1.73;;
19406;SDS011;9839;53.364;-1.204;2024-02-21T06:26:46;2.40;;;1.10;;
19406;SDS011;9839;53.364;-1.204;2024-02-21T06:29:12;3.23;;;1.37;;
19406;SDS011;9839;53.364;-1.204;2024-02-21T06:31:38;2.03;;;1.30;;
19406;SDS011;9839;53.364;-1.204;2024-02-21T06:34:04;2.83;;;1.40;;
19406;SDS011;9839;53.364;-1.204;2024-02-21T06:36:29;2.53;;;1.20;;
19406;SDS011;9839;53.364;-1.204;2024-02-21T06:38:54;4.17;;;1.20;;
19406;SDS011;9839;53.364;-1.204;2024-02-21T06:41:20;4.90;;;1.00;;
19406;SDS011;9839;53.364;-1.204;2024-02-21T06:43:46;4.27;;;1.40;;
19406;SDS011;9839;53.364;-1.204;2024-02-21T06:46:12;1.97;;;1.10;;
19406;SDS011;9839;53.364;-1.204;2024-02-21T06:48:37;4.13;;;1.20;;
19406;SDS011;9839;53.364;-1.204;2024-02-21T06:51:03;4.90;;;1.83;;
19406;SDS011;9839;53.364;-1.204;2024-02-21T06:53:29;3.20;;;1.50;;
19406;SDS011;9839;53.364;-1.204;2024-02-21T06:55:54;6.67;;;1.17;;
19406;SDS011;9839;53.364;-1.204;2024-02-21T06:58:19;7.30;;;1.27;;
19406;SDS011;9839;53.364;-1.204;2024-02-21T07:00:45;2.53;;;1.30;;
19406;SDS011;9839;53.364;-1.204;2024-02-21T07:03:10;5.57;;;1.33;;
19406;SDS011;9839;53.364;-1.204;2024-02-21T07:05:35;3.23;;;1.30;;
19406;SDS011;9839;53.364;-1.204;2024-02-21T07:08:01;3.27;;;1.23;;
19406;SDS011;9839;53.364;-1.204;2024-02-21T07:10:26;4.33;;;1.27;;
19406;SDS011;9839;53.364;-1.204;2024-02-21T07:12:54;2.90;;;1.57;;
19406;SDS011;9839;53.364;-1.204;2024-02-21T07:15:19;6.20;;;1.80;;
19406;SDS011;9839;53.364;-1.204;2024-02-21T07:17:45;5.60;;;1.87;;
19406;SDS011;9839;53.364;-1.204;2024-02-21T07:20:10;3.17;;;1.50;;
19406;SDS011;9839;53.364;-1.204;2024-02-21T07:22:36;4.47;;;1.80;;
19406;SDS011;9839;53.364;-1.204;2024-02-21T07:25:01;8.27;;;1.80;;
19406;SDS011;9839;53.364;-1.204;2024-02-21T07:27:26;7.80;;;1.70;;
19406;SDS011;9839;53.364;-1.204;2024-02-21T07:29:55;6.10;;;1.77;;
19406;SDS011;9839;53.364;-1.204;2024-02-21T07:32:21;7.07;;;2.00;;
19406;SDS011;9839;53.364;-1.204;2024-02-21T07:34:46;3.67;;;1.57;;
19406;SDS011;9839;53.364;-1.204;2024-02-21T07:37:12;2.90;;;1.70;;
19406;SDS011;9839;53.364;-1.204;2024-02-21T07:39:37;6.33;;;1.73;;
19406;SDS011;9839;53.364;-1.204;2024-02-21T07:42:02;9.47;;;2.33;;
19406;SDS011;9839;53.364;-1.204;2024-02-21T07:44:28;7.00;;;2.30;;
19406;SDS011;9839;53.364;-1.204;2024-02-21T07:46:53;4.80;;;2.13;;
19406;SDS011;9839;53.364;-1.204;2024-02-21T07:49:19;8.93;;;2.17;;
19406;SDS011;9839;53.364;-1.204;2024-02-21T07:51:44;7.53;;;1.90;;
19406;SDS011;9839;53.364;-1.204;2024-02-21T07:54:09;4.73;;;2.50;;
19406;SDS011;9839;53.364;-1.204;2024-02-21T07:56:34;5.07;;;2.60;;
19406;SDS011;9839;53.364;-1.204;2024-02-21T07:59:00;3.70;;;2.03;;
19406;SDS011;9839;53.364;-1.204;2024-02-21T08:01:25;6.53;;;2.57;;
19406;SDS011;9839;53.364;-1.204;2024-02-21T08:03:51;6.43;;;2.87;;
19406;SDS011;9839;53.364;-1.204;2024-02-21T08:06:16;8.20;;;2.83;;
19406;SDS011;9839;53.364;-1.204;2024-02-21T08:08:41;7.23;;;2.37;;
19406;SDS011;9839;53.364;-1.204;2024-02-21T08:11:07;7.10;;;2.67;;
19406;SDS011;9839;53.364;-1.204;2024-02-21T08:13:32;6.07;;;2.83;;
19406;SDS011;9839;53.364;-1.204;2024-02-21T08:15:57;5.70;;;2.67;;
19406;SDS011;9839;53.364;-1.204;2024-02-21T08:18:23;10.47;;;3.10;;
19406;SDS011;9839;53.364;-1.204;2024-02-21T08:20:48;7.57;;;2.80;;
19406;SDS011;9839;53.364;-1.204;2024-02-21T08:23:18;5.57;;;2.23;;
19406;SDS011;9839;53.364;-1.204;2024-02-21T08:25:43;7.70;;;2.00;;
19406;SDS011;9839;53.364;-1.204;2024-02-21T08:28:09;5.27;;;2.50;;
19406;SDS011;9839;53.364;-1.204;2024-02-21T08:30:34;5.67;;;2.53;;
19406;SDS011;9839;53.364;-1.204;2024-02-21T08:32:59;5.50;;;2.33;;
19406;SDS011;9839;53.364;-1.204;2024-02-21T08:35:25;4.43;;;1.67;;
19406;SDS011;9839;53.364;-1.204;2024-02-21T08:37:50;4.10;;;1.83;;
19406;SDS011;9839;53.364;-1.204;2024-02-21T08:40:16;6.10;;;1.93;;
19406;SDS011;9839;53.364;-1.204;2024-02-21T08:42:46;6.20;;;1.80;;
19406;SDS011;9839;53.364;-1.204;2024-02-21T08:45:11;5.40;;;1.70;;
19406;SDS011;9839;53.364;-1.204;2024-02-21T08:47:39;2.73;;;1.40;;
19406;SDS011;9839;53.364;-1.204;2024-02-21T08:50:05;2.07;;;1.20;;
19406;SDS011;9839;53.364;-1.204;2024-02-21T08:52:31;2.87;;;1.60;;
19406;SDS011;9839;53.364;-1.204;2024-02-21T08:54:56;1.70;;;1.20;;
19406;SDS011;9839;53.364;-1.204;2024-02-21T08:57:22;6.43;;;1.60;;
19406;SDS011;9839;53.364;-1.204;2024-02-21T08:59:47;4.17;;;1.47;;
19406;SDS011;9839;53.364;-1.204;2024-02-21T09:02:13;5.67;;;1.90;;
19406;SDS011;9839;53.364;-1.204;2024-02-21T09:04:38;4.80;;;1.30;;
19406;SDS011;9839;53.364;-1.204;2024-02-21T09:07:04;5.00;;;1.30;;
19406;SDS011;9839;53.364;-1.204;2024-02-21T09:09:29;4.77;;;1.37;;
19406;SDS011;9839;53.364;-1.204;2024-02-21T09:11:55;5.97;;;1.17;;
19406;SDS011;9839;53.364;-1.204;2024-02-21T09:14:20;3.73;;;1.53;;
19406;SDS011;9839;53.364;-1.204;2024-02-21T09:16:45;6.00;;;1.17;;
19406;SDS011;9839;53.364;-1.204;2024-02-21T09:19:11;5.57;;;1.20;;
19406;SDS011;9839;53.364;-1.204;2024-02-21T09:21:37;1.23;;;0.90;;
19406;SDS011;9839;53.364;-1.204;2024-02-21T09:24:03;1.77;;;0.87;;
19406;SDS011;9839;53.364;-1.204;2024-02-21T09:26:29;3.80;;;1.17;;
19406;SDS011;9839;53.364;-1.204;2024-02-21T09:28:54;1.43;;;1.07;;
19406;SDS011;9839;53.364;-1.204;2024-02-21T09:31:19;1.77;;;0.93;;
19406;SDS011;9839;53.364;-1.204;2024-02-21T09:33:45;3.43;;;1.20;;
19406;SDS011;9839;53.364;-1.204;2024-02-21T09:36:10;3.07;;;1.00;;
19406;SDS011;9839;53.364;-1.204;2024-02-21T09:38:36;4.43;;;1.00;;
19406;SDS011;9839;53.364;-1.204;2024-02-21T09:41:06;2.47;;;0.97;;
19406;SDS011;9839;53.364;-1.204;2024-02-21T09:43:42;3.60;;;0.77;;
19406;SDS011;9839;53.364;-1.204;2024-02-21T09:46:08;1.80;;;0.67;;
19406;SDS011;9839;53.364;-1.204;2024-02-21T09:48:42;1.77;;;0.93;;
19406;SDS011;9839;53.364;-1.204;2024-02-21T09:51:15;1.07;;;0.70;;
19406;SDS011;9839;53.364;-1.204;2024-02-21T09:53:42;5.23;;;0.80;;
19406;SDS011;9839;53.364;-1.204;2024-02-21T09:56:08;0.97;;;0.70;;
19406;SDS011;9839;53.364;-1.204;2024-02-21T09:58:34;3.33;;;0.53;;
19406;SDS011;9839;53.364;-1.204;2024-02-21T10:00:59;2.57;;;0.80;;
19406;SDS011;9839;53.364;-1.204;2024-02-21T10:03:25;1.67;;;0.60;;
19406;SDS011;9839;53.364;-1.204;2024-02-21T10:05:50;3.97;;;0.90;;
19406;SDS011;9839;53.364;-1.204;2024-02-21T10:08:16;2.50;;;0.70;;
19406;SDS011;9839;53.364;-1.204;2024-02-21T10:10:42;2.70;;;0.87;;
19406;SDS011;9839;53.364;-1.204;2024-02-21T10:13:09;2.10;;;0.87;;
19406;SDS011;9839;53.364;-1.204;2024-02-21T10:15:35;1.43;;;0.60;;
19406;SDS011;9839;53.364;-1.204;2024-02-21T10:18:01;0.77;;;0.50;;
19406;SDS011;9839;53.364;-1.204;2024-02-21T10:20:28;2.77;;;0.60;;
19406;SDS011;9839;53.364;-1.204;2024-02-21T10:23:04;1.57;;;0.67;;
19406;SDS011;9839;53.364;-1.204;2024-02-21T10:25:35;1.80;;;0.50;;
19406;SDS011;9839;53.364;-1.204;2024-02-21T10:28:06;0.77;;;0.50;;
19406;SDS011;9839;53.364;-1.204;2024-02-21T10:30:31;2.13;;;0.60;;
19406;SDS011;9839;53.364;-1.204;2024-02-21T10:32:57;2.00;;;0.50;;
19406;SDS011;9839;53.364;-1.204;2024-02-21T10:35:26;3.10;;;0.70;;
19406;SDS011;9839;53.364;-1.204;2024-02-21T10:37:55;1.03;;;0.50;;
19406;SDS011;9839;53.364;-1.204;2024-02-21T10:40:30;1.80;;;0.50;;
19406;SDS011;9839;53.364;-1.204;2024-02-21T10:42:56;1.53;;;0.50;;
19406;SDS011;9839;53.364;-1.204;2024-02-21T10:45:34;2.67;;;0.60;;
19406;SDS011;9839;53.364;-1.204;2024-02-21T10:48:13;0.70;;;0.60;;
19406;SDS011;9839;53.364;-1.204;2024-02-21T10:50:44;1.23;;;0.40;;
19406;SDS011;9839;53.364;-1.204;2024-02-21T10:56:15;1.23;;;0.50;;
19406;SDS011;9839;53.364;-1.204;2024-02-21T10:58:45;0.73;;;0.57;;
19406;SDS011;9839;53.364;-1.204;2024-02-21T11:01:11;1.73;;;0.60;;
19406;SDS011;9839;53.364;-1.204;2024-02-21T11:03:39;1.37;;;0.43;;
19406;SDS011;9839;53.364;-1.204;2024-02-21T11:06:06;1.27;;;0.60;;
19406;SDS011;9839;53.364;-1.204;2024-02-21T11:08:33;4.17;;;0.67;;
19406;SDS011;9839;53.364;-1.204;2024-02-21T11:10:59;0.87;;;0.50;;
19406;SDS011;9839;53.364;-1.204;2024-02-21T11:13:32;1.47;;;0.90;;
19406;SDS011;9839;53.364;-1.204;2024-02-21T11:16:09;2.40;;;0.60;;
19406;SDS011;9839;53.364;-1.204;2024-02-21T11:18:36;0.40;;;0.37;;
19406;SDS011;9839;53.364;-1.204;2024-02-21T11:21:05;0.63;;;0.50;;
19406;SDS011;9839;53.364;-1.204;2024-02-21T11:23:30;1.60;;;0.50;;
19406;SDS011;9839;53.364;-1.204;2024-02-21T11:26:08;0.70;;;0.50;;
19406;SDS011;9839;53.364;-1.204;2024-02-21T11:28:34;2.27;;;0.60;;
19406;SDS011;9839;53.364;-1.204;2024-02-21T11:31:11;3.83;;;0.50;;
19406;SDS011;9839;53.364;-1.204;2024-02-21T11:33:41;1.13;;;0.50;;
19406;SDS011;9839;53.364;-1.204;2024-02-21T11:36:07;1.13;;;0.50;;
19406;SDS011;9839;53.364;-1.204;2024-02-21T11:38:33;1.13;;;0.60;;
19406;SDS011;9839;53.364;-1.204;2024-02-21T11:40:59;0.77;;;0.67;;
19406;SDS011;9839;53.364;-1.204;2024-02-21T11:43:24;1.40;;;0.50;;
19406;SDS011;9839;53.364;-1.204;2024-02-21T11:45:50;0.50;;;0.40;;
19406;SDS011;9839;53.364;-1.204;2024-02-21T11:48:16;0.67;;;0.50;;
19406;SDS011;9839;53.364;-1.204;2024-02-21T11:50:41;1.47;;;0.53;;
19406;SDS011;9839;53.364;-1.204;2024-02-21T11:53:07;0.57;;;0.43;;
19406;SDS011;9839;53.364;-1.204;2024-02-21T11:55:32;1.17;;;0.50;;
19406;SDS011;9839;53.364;-1.204;2024-02-21T11:57:59;0.60;;;0.47;;
19406;SDS011;9839;53.364;-1.204;2024-02-21T12:00:25;2.03;;;0.43;;
19406;SDS011;9839;53.364;-1.204;2024-02-21T12:02:50;0.93;;;0.40;;
19406;SDS011;9839;53.364;-1.204;2024-02-21T12:05:16;0.50;;;0.50;;
19406;SDS011;9839;53.364;-1.204;2024-02-21T12:07:41;1.00;;;0.50;;
19406;SDS011;9839;53.364;-1.204;2024-02-21T12:10:10;1.07;;;0.40;;
19406;SDS011;9839;53.364;-1.204;2024-02-21T12:12:39;0.37;;;0.30;;
19406;SDS011;9839;53.364;-1.204;2024-02-21T12:15:05;0.90;;;0.40;;
19406;SDS011;9839;53.364;-1.204;2024-02-21T12:17:34;0.60;;;0.50;;
19406;SDS011;9839;53.364;-1.204;2024-02-21T12:20:00;1.47;;;0.67;;
19406;SDS011;9839;53.364;-1.204;2024-02-21T12:22:29;2.20;;;0.57;;
19406;SDS011;9839;53.364;-1.204;2024-02-21T12:24:57;0.60;;;0.40;;
19406;SDS011;9839;53.364;-1.204;2024-02-21T12:27:22;0.93;;;0.40;;
19406;SDS011;9839;53.364;-1.204;2024-02-21T12:29:48;1.27;;;0.67;;
19406;SDS011;9839;53.364;-1.204;2024-02-21T12:32:14;0.40;;;0.40;;
19406;SDS011;9839;53.364;-1.204;2024-02-21T12:34:39;1.70;;;0.73;;
19406;SDS011;9839;53.364;-1.204;2024-02-21T12:37:05;0.50;;;0.40;;
19406;SDS011;9839;53.364;-1.204;2024-02-21T12:39:30;1.03;;;0.60;;
19406;SDS011;9839;53.364;-1.204;2024-02-21T12:41:56;1.20;;;0.50;;
19406;SDS011;9839;53.364;-1.204;2024-02-21T12:44:22;1.20;;;0.40;;
19406;SDS011;9839;53.364;-1.204;2024-02-21T12:46:47;0.50;;;0.40;;
19406;SDS011;9839;53.364;-1.204;2024-02-21T12:49:17;0.70;;;0.40;;
19406;SDS011;9839;53.364;-1.204;2024-02-21T12:51:43;1.87;;;0.50;;
19406;SDS011;9839;53.364;-1.204;2024-02-21T12:54:08;1.20;;;0.30;;
19406;SDS011;9839;53.364;-1.204;2024-02-21T12:56:36;1.30;;;0.50;;
19406;SDS011;9839;53.364;-1.204;2024-02-21T12:59:01;1.47;;;0.60;;
19406;SDS011;9839;53.364;-1.204;2024-02-21T13:01:27;0.77;;;0.40;;
19406;SDS011;9839;53.364;-1.204;2024-02-21T13:03:53;0.40;;;0.30;;
19406;SDS011;9839;53.364;-1.204;2024-02-21T13:06:19;1.23;;;0.40;;
19406;SDS011;9839;53.364;-1.204;2024-02-21T13:08:44;0.47;;;0.40;;
19406;SDS011;9839;53.364;-1.204;2024-02-21T13:11:11;0.40;;;0.20;;
19406;SDS011;9839;53.364;-1.204;2024-02-21T13:13:37;0.20;;;0.20;;
19406;SDS011;9839;53.364;-1.204;2024-02-21T13:16:03;0.73;;;0.47;;
19406;SDS011;9839;53.364;-1.204;2024-02-21T13:18:28;0.53;;;0.30;;
19406;SDS011;9839;53.364;-1.204;2024-02-21T13:20:54;0.50;;;0.40;;
19406;SDS011;9839;53.364;-1.204;2024-02-21T13:23:19;0.63;;;0.20;;
19406;SDS011;9839;53.364;-1.204;2024-02-21T13:25:46;0.77;;;0.40;;
19406;SDS011;9839;53.364;-1.204;2024-02-21T13:28:12;0.97;;;0.50;;
19406;SDS011;9839;53.364;-1.204;2024-02-21T13:30:38;0.77;;;0.40;;
19406;SDS011;9839;53.364;-1.204;2024-02-21T13:33:05;0.30;;;0.30;;
19406;SDS011;9839;53.364;-1.204;2024-02-21T13:35:32;0.40;;;0.30;;
19406;SDS011;9839;53.364;-1.204;2024-02-21T13:37:57;0.83;;;0.40;;
19406;SDS011;9839;53.364;-1.204;2024-02-21T13:40:23;0.93;;;0.30;;
19406;SDS011;9839;53.364;-1.204;2024-02-21T13:42:50;0.43;;;0.40;;
19406;SDS011;9839;53.364;-1.204;2024-02-21T13:45:16;2.77;;;0.60;;
19406;SDS011;9839;53.364;-1.204;2024-02-21T13:47:41;0.63;;;0.33;;
19406;SDS011;9839;53.364;-1.204;2024-02-21T13:50:07;2.20;;;0.30;;
19406;SDS011;9839;53.364;-1.204;2024-02-21T13:52:39;0.77;;;0.30;;
19406;SDS011;9839;53.364;-1.204;2024-02-21T13:55:05;0.97;;;0.30;;
19406;SDS011;9839;53.364;-1.204;2024-02-21T13:57:33;1.10;;;0.30;;
19406;SDS011;9839;53.364;-1.204;2024-02-21T14:00:02;0.83;;;0.40;;
19406;SDS011;9839;53.364;-1.204;2024-02-21T14:02:29;0.40;;;0.40;;
19406;SDS011;9839;53.364;-1.204;2024-02-21T14:04:55;1.10;;;0.60;;
19406;SDS011;9839;53.364;-1.204;2024-02-21T14:07:20;2.83;;;0.30;;
19406;SDS011;9839;53.364;-1.204;2024-02-21T14:09:45;1.92;;;0.40;;
19406;SDS011;9839;53.364;-1.204;2024-02-21T14:12:11;0.50;;;0.40;;
19406;SDS011;9839;53.364;-1.204;2024-02-21T14:14:37;1.75;;;0.40;;
19406;SDS011;9839;53.364;-1.204;2024-02-21T14:17:02;0.98;;;0.40;;
19406;SDS011;9839;53.364;-1.204;2024-02-21T14:19:29;1.07;;;0.33;;
19406;SDS011;9839;53.364;-1.204;2024-02-21T14:21:54;1.40;;;0.55;;
19406;SDS011;9839;53.364;-1.204;2024-02-21T14:24:20;0.20;;;0.20;;
19406;SDS011;9839;53.364;-1.204;2024-02-21T14:26:45;1.73;;;0.50;;
19406;SDS011;9839;53.364;-1.204;2024-02-21T14:29:10;0.60;;;0.40;;
19406;SDS011;9839;53.364;-1.204;2024-02-21T14:31:38;0.65;;;0.30;;
19406;SDS011;9839;53.364;-1.204;2024-02-21T14:34:03;1.73;;;0.30;;
19406;SDS011;9839;53.364;-1.204;2024-02-21T14:36:28;0.87;;;0.33;;
19406;SDS011;9839;53.364;-1.204;2024-02-21T14:38:54;5.10;;;0.50;;